• Join FlightAware (Why Join?)
  • Login
  • US Flag 
05:58PM EDT


 

Airport Tracker/Info


-or-


 

Live Flight TrackerFlight Track Log ✈ NKS971 ✈ 19-Apr-2013 ✈ KDFW - KIWA

Flight Track Log - Related Links

Times and Time Zones

All times are in EDT time to prevent confusion due to time zone crossing. See the NKS971 flight status page for this flight to view local times or setup timezone preferences in your user account.

Time Position Orientation Groundspeed Altitude Reporting Facility
EDT Latitude Longitude Course Direction KTS MPH feet Rate Location/Type
12:37AM 32.8370 -97.0330 190° South 217 250 2,300  Level FlightAware
12:38AM 32.8040 -97.0390 189° South 249 287 3,400 2,520 Climbing FlightAware
12:38AM 32.7860 -97.0420 188° South 256 295 4,200 3,000 Climbing FlightAware
12:38AM 32.7560 -97.0470 188° South 269 310 5,400 2,700 Climbing FlightAware
12:39AM 32.7210 -97.0610 199° South 277 319 6,700 2,640 Climbing FlightAware
12:39AM 32.7100 -97.0790 234° Southwest 277 319 7,400 2,580 Climbing FlightAware
12:39AM 32.7060 -97.0990 257° West 277 319 8,000 3,000 Climbing FlightAware
12:40AM 32.7090 -97.1380 275° West 277 319 9,400 2,700 Climbing FlightAware
12:40AM 32.7150 -97.2080 276° West 296 341 11,200 1,800 Climbing FlightAware
12:41AM 32.7220 -97.2740 277° West 339 390 12,000 1,800 Climbing FlightAware
12:42AM 32.7290 -97.3500 276° West 347 399 13,600 2,460 Climbing FlightAware
12:42AM 32.7370 -97.4300 277° West 354 407 15,300 2,400 Climbing FlightAware
12:43AM 32.7450 -97.5120 277° West 357 411 17,000 2,220 Climbing FlightAware
12:44AM 32.7530 -97.5950 277° West 366 421 18,500 2,040 Climbing FlightAware
12:45AM 32.7610 -97.6840 276° West 372 428 19,900 1,800 Climbing FlightAware
12:45AM 32.7690 -97.7680 276° West 378 435 21,100 1,680 Climbing FlightAware
12:46AM 32.7770 -97.8510 277° West 386 444 22,200 1,620 Climbing FlightAware
12:47AM 32.7860 -97.9430 277° West 389 448 23,400 1,200 Climbing FlightAware
12:47AM 32.7940 -98.0270 276° West 390 449 23,900 1,440 Climbing FlightAware
12:48AM 32.8030 -98.1340 276° West 400 460 25,500 1,260 Climbing FlightAware
12:49AM 32.8100 -98.2100 276° West 402 463 25,700 1,260 Climbing FlightAware
12:49AM 32.8190 -98.3060 276° West 409 471 27,200 1,680 Climbing FlightAware
12:50AM 32.8280 -98.4090 276° West 413 475 28,100 600 Climbing FlightAware
12:51AM 32.8350 -98.4890 276° West 413 475 28,100  Level FlightAware
12:51AM 32.8420 -98.5650 276° West 413 475 28,100 1,740 Level FlightAware
12:52AM 32.8530 -98.6940 276° West 415 478 30,600 2,460 Climbing FlightAware
12:53AM 32.8620 -98.7960 276° West 407 468 31,800 1,320 Climbing FlightAware
12:54AM 32.8700 -98.8860 276° West 407 468 32,500 1,080 Climbing FlightAware
12:54AM 32.8780 -98.9830 276° West 403 464 33,400 1,020 Climbing FlightAware
12:55AM 32.8850 -99.0710 275° West 394 453 34,000 420 Climbing FlightAware
12:56AM 32.8930 -99.1590 276° West 402 463 34,000  Level FlightAware
12:56AM 32.9010 -99.2600 275° West 408 470 34,000  Level FlightAware
12:57AM 32.9080 -99.3450 276° West 406 467 34,000  Level FlightAware
12:58AM 32.9160 -99.4480 275° West 406 467 34,000 -120 Level FlightAware
12:59AM 32.9230 -99.5370 275° West 406 467 33,900  Descending FlightAware
12:59AM 32.9300 -99.6270 275° West 408 470 34,000 60 Climbing FlightAware
01:00AM 32.9380 -99.7210 276° West 411 473 34,000  Level FlightAware
01:01AM 32.9450 -99.8210 275° West 412 474 34,000  Level FlightAware
01:02AM 32.9520 -99.9170 275° West 412 474 34,000  Level FlightAware
01:02AM 32.9580 -99.9940 275° West 412 474 34,000  Level FlightAware
01:03AM 32.9690 -100.1300 276° West 411 473 34,000  Level FlightAware
01:04AM 32.9770 -100.2470 275° West 411 473 34,000  Level FlightAware
01:05AM 32.9820 -100.3240 274° West 411 473 34,000  Level FlightAware
01:05AM 32.9860 -100.4010 274° West 411 473 34,000  Level FlightAware
01:06AM 32.9920 -100.4970 274° West 411 473 34,000  Level FlightAware
01:07AM 32.9960 -100.5740 274° West 411 473 34,000  Level FlightAware
01:07AM 33.0010 -100.6510 274° West 411 473 34,000  Level FlightAware
01:08AM 33.0050 -100.7280 274° West 411 473 34,000  Level FlightAware
01:09AM 33.0100 -100.8050 274° West 411 473 34,000  Level FlightAware
01:10AM 33.0160 -100.9010 274° West 411 473 34,000  Level FlightAware
01:10AM 33.0200 -100.9780 274° West 411 473 34,000  Level FlightAware
01:11AM 33.0250 -101.0550 274° West 411 473 34,000  Level FlightAware
01:12AM 33.0290 -101.1320 274° West 411 473 34,000  Level FlightAware
01:12AM 33.0340 -101.2090 274° West 411 473 34,000  Level FlightAware
01:13AM 33.0600 -101.4750 277° West 404 465 34,000  Level FlightAware
01:14AM 33.0660 -101.5620 275° West 401 461 34,000  Level FlightAware
01:14AM 33.0710 -101.6540 274° West 401 461 34,000 180 Level FlightAware
01:15AM 33.0780 -101.7610 274° West 395 455 34,300 840 Climbing FlightAware
01:16AM 33.0840 -101.8470 275° West 386 444 35,200 780 Climbing FlightAware
01:16AM 33.0880 -101.9270 273° West 386 444 35,400 540 Climbing FlightAware
01:17AM 33.0950 -102.0350 274° West 395 455 36,000 480 Climbing FlightAware
01:18AM 33.0990 -102.0980 274° West 394 453 36,000  Level FlightAware
01:19AM 33.1060 -102.2170 274° West 394 453 36,000  Level FlightAware
01:19AM 33.1100 -102.2850 274° West 394 453 36,000  Level FlightAware
01:20AM 33.1160 -102.4030 274° West 392 451 36,000  Level FlightAware
01:21AM 33.1240 -102.5420 274° West 395 455 36,000  Level FlightAware
01:22AM 33.1270 -102.6160 273° West 395 455 36,000  Level FlightAware
01:23AM 33.1300 -102.6900 273° West 395 455 36,000  Level FlightAware
01:23AM 33.1340 -102.7640 274° West 395 455 36,000  Level FlightAware
01:24AM 33.1370 -102.8380 273° West 395 455 36,000  Level FlightAware
01:25AM 33.1400 -102.9120 273° West 395 455 36,000  Level FlightAware
01:25AM 33.1440 -103.0050 273° West 395 455 36,000  Level FlightAware
01:26AM 33.1470 -103.0790 273° West 395 455 36,000  Level FlightAware
01:27AM 33.1510 -103.1530 274° West 395 455 36,000  Level FlightAware
01:27AM 33.1540 -103.2270 273° West 395 455 36,000  Level FlightAware
01:28AM 33.1580 -103.3200 273° West 395 455 36,000  Level FlightAware
01:29AM 33.1610 -103.3940 273° West 395 455 36,000  Level FlightAware
01:30AM 33.1640 -103.4680 273° West 395 455 36,000  Level FlightAware
01:30AM 33.1680 -103.5420 274° West 395 455 36,000  Level FlightAware
01:31AM 33.1892 -103.7619 274° West 384 442 36,000  Level Albuquerque Center
01:32AM 33.1939 -103.8911 273° West 388 447 36,000  Level Albuquerque Center
01:33AM 33.1992 -104.0217 273° West 393 452 36,000  Level Albuquerque Center
01:34AM 33.2042 -104.1522 273° West 394 453 36,000 120 Level Albuquerque Center
01:35AM 33.2092 -104.2833 273° West 395 455 36,300 420 Climbing Albuquerque Center
01:36AM 33.2147 -104.3981 273° West 397 457 36,900 780 Climbing Albuquerque Center
01:37AM 33.2194 -104.5289 273° West 397 457 37,900 540 Climbing Albuquerque Center
01:38AM 33.2228 -104.6728 272° West 381 438 38,000  Climbing Albuquerque Center
01:39AM 33.2281 -104.8078 273° West 378 435 38,000  Level Albuquerque Center
01:40AM 33.2328 -104.9333 273° West 378 435 38,000  Level Albuquerque Center
01:41AM 33.2381 -105.0589 273° West 379 436 38,000  Level Albuquerque Center
01:42AM 33.2428 -105.1836 273° West 379 436 38,000  Level Albuquerque Center
01:43AM 33.2461 -105.3092 272° West 379 436 38,000  Level Albuquerque Center
01:44AM 33.2497 -105.4353 272° West 380 437 38,000  Level Albuquerque Center
01:45AM 33.2539 -105.5633 272° West 385 443 38,000  Level Albuquerque Center
01:46AM 33.2592 -105.6864 273° West 392 451 38,000  Level Albuquerque Center
01:47AM 33.2636 -105.8167 272° West 394 453 38,000  Level Albuquerque Center
01:48AM 33.2667 -105.9467 272° West 394 453 38,000 -60 Level Albuquerque Center
01:49AM 33.2706 -106.0753 272° West 391 450 37,900 -60 Descending Albuquerque Center
01:50AM 33.2733 -106.2033 272° West 388 447 37,900  Level Albuquerque Center
01:51AM 33.2767 -106.3328 272° West 390 449 38,000  Climbing Albuquerque Center
01:52AM 33.2811 -106.4611 272° West 390 449 37,900  Descending Albuquerque Center
01:53AM 33.2833 -106.5889 271° West 388 447 38,000  Climbing Albuquerque Center
01:54AM 33.2867 -106.7181 272° West 389 448 38,000 -60 Level Albuquerque Center
01:55AM 33.2892 -106.8458 271° West 389 448 37,900 -60 Descending Albuquerque Center
01:56AM 33.2914 -106.9697 271° West 382 440 37,900  Level Albuquerque Center
01:57AM 33.2944 -107.0975 272° West 383 441 38,000  Climbing Albuquerque Center
02:02AM 33.3060 -107.8250 272° West 384 442 38,000  Level FlightAware
02:03AM 33.3060 -107.9100 270° West 384 442 38,000  Level FlightAware
02:04AM 33.3060 -107.9820 270° West 384 442 38,000  Level FlightAware
02:05AM 33.3060 -108.0540 270° West 384 442 38,000  Level FlightAware
02:05AM 33.3100 -108.1990 272° West 378 435 38,000  Level FlightAware
02:06AM 33.3120 -108.3000 271° West 376 433 38,000  Level FlightAware
02:07AM 33.3120 -108.3650 270° West 376 433 38,000  Level FlightAware
02:08AM 33.3130 -108.4600 271° West 378 435 38,000  Level FlightAware
02:08AM 33.3130 -108.5310 270° West 378 435 38,000  Level FlightAware
02:09AM 33.3130 -108.6020 270° West 378 435 38,000  Level FlightAware
02:10AM 33.3130 -108.6910 270° West 378 435 38,000  Level FlightAware
02:10AM 33.3130 -108.7620 270° West 378 435 38,000  Level FlightAware
02:11AM 33.3130 -108.8330 270° West 378 435 38,000  Level FlightAware
02:12AM 33.3180 -109.0050 272° West 367 422 38,000  Level FlightAware
02:13AM 33.3180 -109.0750 270° West 365 420 38,000  Level FlightAware
02:13AM 33.3180 -109.1710 270° West 367 422 38,000  Level FlightAware
02:14AM 33.3190 -109.2440 271° West 369 425 38,000  Level FlightAware
02:15AM 33.3190 -109.3330 270° West 370 426 38,000 -420 Level FlightAware
02:16AM 33.3190 -109.4450 270° West 370 426 37,400 -960 Descending FlightAware
02:17AM 33.3190 -109.5680 270° West 377 434 36,400 -1,020 Descending FlightAware
02:17AM 33.3190 -109.6310 270° West 381 438 35,900 -1,380 Descending FlightAware
02:18AM 33.3190 -109.6910 270° West 384 442 34,800 -2,580 Descending FlightAware
02:19AM 33.3190 -109.8290 270° West 399 459 31,600 -2,820 Descending FlightAware
02:20AM 33.3190 -109.9280 270° West 399 459 29,700 -2,340 Descending FlightAware
02:20AM 33.3190 -110.0000 270° West 397 457 28,300 -2,580 Descending FlightAware
02:21AM 33.3180 -110.1280 269° West 394 453 25,900 -2,640 Descending FlightAware
02:22AM 33.3180 -110.2130 270° West 382 440 24,200 -2,400 Descending FlightAware
02:23AM 33.3170 -110.3140 269° West 373 429 22,300 -2,520 Descending FlightAware
02:23AM 33.3170 -110.3950 270° West 368 423 20,700 -2,520 Descending FlightAware
02:24AM 33.3160 -110.4930 269° West 360 414 18,800 -2,280 Descending FlightAware
02:25AM 33.3150 -110.5710 269° West 354 407 17,300 -1,980 Descending FlightAware
02:25AM 33.3150 -110.6430 270° West 347 399 16,000 -2,160 Descending FlightAware
02:26AM 33.3140 -110.7160 269° West 340 391 14,600 -2,100 Descending FlightAware
02:27AM 33.3140 -110.7890 270° West 331 381 13,400 -1,680 Descending FlightAware
02:27AM 33.3130 -110.8890 269° West 323 372 12,000 -960 Descending FlightAware
02:28AM 33.3120 -110.9760 269° West 315 362 12,000 -1,080 Level FlightAware
02:29AM 33.3110 -111.0550 269° West 314 361 10,500 -1,440 Descending FlightAware
02:30AM 33.3100 -111.1230 269° West 291 335 10,000 -420 Descending FlightAware
02:30AM 33.3090 -111.1850 269° West 278 320 10,000  Level FlightAware
02:31AM 33.3090 -111.2530 270° West 279 321 10,000  Level FlightAware
02:32AM 33.3080 -111.3140 269° West 278 320 10,000 -300 Level FlightAware
02:32AM 33.3070 -111.3590 268° West 273 314 9,700 -1,800 Descending FlightAware
02:33AM 33.3070 -111.4000 270° West 281 323 8,400 -1,980 Descending FlightAware
02:33AM 33.3060 -111.4450 268° West 256 295 7,900 -900 Descending FlightAware
02:34AM 33.3050 -111.4810 268° West 237 273 7,500 -960 Descending FlightAware
02:34AM 33.3110 -111.5310 278° West 207 238 6,800 -1,200 Descending FlightAware
02:35AM 33.3260 -111.5600 302° West 193 222 6,100 -1,680 Descending FlightAware
02:35AM 33.3420 -111.5770 318° Northwest 191 220 5,300 -1,800 Descending FlightAware
02:36AM 33.3600 -111.5980 316° Northwest 185 213 4,500 -1,680 Descending FlightAware
02:36AM 33.3740 -111.6160 313° West 183 211 3,800 -1,800 Descending FlightAware
02:37AM 33.3900 -111.6420 306° West 185 213 2,900 -1,380 Descending FlightAware
02:37AM 33.3920 -111.6560 280° West 177 204 2,800 -600 Descending FlightAware
02:37AM 33.3870 -111.6750 253° West 159 183 2,500 -480 Descending FlightAware
02:37AM 33.3800 -111.6870 235° Southwest 140 161 2,500 -420 Level FlightAware
02:38AM 33.3740 -111.6950 228° Southwest 145 167 2,300 -480 Descending FlightAware
02:38AM 33.3560 -111.7020 198° South 142 163 2,100 -360 Descending FlightAware
02:39AM 33.3480 -111.7030 186° South 143 165 2,000 -540 Descending FlightAware
02:39AM 33.3300 -111.6880 145° Southeast 150 173 1,700 -600 Descending FlightAware
02:40AM 33.3190 -111.6750 135° Southeast 142 163 1,400 -360 Descending FlightAware
02:40AM 33.3080 -111.6620 135° Southeast 142 163 1,400 -180 Level FlightAware
02:40AM 33.3008 -111.6511 135° Southeast 144 166 1,300 -360 Descending Albuquerque Center